sensor_id;sensor_type;location;lat;lon;timestamp;P1;durP1;ratioP1;P2;durP2;ratioP2
7563;SDS011;3823;53.586;10.040;2022-12-20T00:00:12;8.18;;;6.63;;
7563;SDS011;3823;53.586;10.040;2022-12-20T00:22:35;9.57;;;6.82;;
7563;SDS011;3823;53.586;10.040;2022-12-20T00:25:01;11.38;;;7.10;;
7563;SDS011;3823;53.586;10.040;2022-12-20T00:27:27;10.90;;;8.32;;
7563;SDS011;3823;53.586;10.040;2022-12-20T00:29:53;13.07;;;7.25;;
7563;SDS011;3823;53.586;10.040;2022-12-20T00:32:19;7.45;;;6.38;;
7563;SDS011;3823;53.586;10.040;2022-12-20T00:34:44;10.18;;;6.63;;
7563;SDS011;3823;53.586;10.040;2022-12-20T00:37:10;8.73;;;7.05;;
7563;SDS011;3823;53.586;10.040;2022-12-20T00:39:36;10.07;;;6.97;;
7563;SDS011;3823;53.586;10.040;2022-12-20T00:42:01;9.43;;;7.60;;
7563;SDS011;3823;53.586;10.040;2022-12-20T00:44:27;9.48;;;6.95;;
7563;SDS011;3823;53.586;10.040;2022-12-20T00:46:52;9.38;;;7.40;;
7563;SDS011;3823;53.586;10.040;2022-12-20T00:49:18;9.10;;;7.20;;
7563;SDS011;3823;53.586;10.040;2022-12-20T00:51:43;9.18;;;7.10;;
7563;SDS011;3823;53.586;10.040;2022-12-20T00:54:09;9.85;;;6.68;;
7563;SDS011;3823;53.586;10.040;2022-12-20T00:56:35;8.05;;;6.78;;
7563;SDS011;3823;53.586;10.040;2022-12-20T00:59:00;9.80;;;6.70;;
7563;SDS011;3823;53.586;10.040;2022-12-20T01:01:27;11.45;;;7.47;;
7563;SDS011;3823;53.586;10.040;2022-12-20T01:03:54;6.97;;;6.07;;
7563;SDS011;3823;53.586;10.040;2022-12-20T01:06:21;11.98;;;7.40;;
7563;SDS011;3823;53.586;10.040;2022-12-20T01:08:48;10.60;;;6.60;;
7563;SDS011;3823;53.586;10.040;2022-12-20T01:13:43;8.73;;;6.30;;
7563;SDS011;3823;53.586;10.040;2022-12-20T01:16:12;14.15;;;7.03;;
7563;SDS011;3823;53.586;10.040;2022-12-20T01:18:39;7.90;;;6.65;;
7563;SDS011;3823;53.586;10.040;2022-12-20T01:21:06;7.38;;;5.90;;
7563;SDS011;3823;53.586;10.040;2022-12-20T01:23:34;11.05;;;6.10;;
7563;SDS011;3823;53.586;10.040;2022-12-20T01:26:00;9.07;;;7.20;;
7563;SDS011;3823;53.586;10.040;2022-12-20T01:28:28;9.80;;;7.07;;
7563;SDS011;3823;53.586;10.040;2022-12-20T01:30:55;20.42;;;7.20;;
7563;SDS011;3823;53.586;10.040;2022-12-20T01:33:21;7.50;;;6.65;;
7563;SDS011;3823;53.586;10.040;2022-12-20T01:36:05;9.27;;;6.85;;
7563;SDS011;3823;53.586;10.040;2022-12-20T01:38:33;7.82;;;6.72;;
7563;SDS011;3823;53.586;10.040;2022-12-20T01:40:59;8.48;;;7.18;;
7563;SDS011;3823;53.586;10.040;2022-12-20T01:43:43;9.15;;;7.32;;
7563;SDS011;3823;53.586;10.040;2022-12-20T01:46:10;7.75;;;6.53;;
7563;SDS011;3823;53.586;10.040;2022-12-20T01:48:35;10.05;;;7.28;;
7563;SDS011;3823;53.586;10.040;2022-12-20T01:51:01;10.35;;;7.35;;
7563;SDS011;3823;53.586;10.040;2022-12-20T01:53:27;7.85;;;6.95;;
7563;SDS011;3823;53.586;10.040;2022-12-20T01:55:53;10.57;;;7.22;;
7563;SDS011;3823;53.586;10.040;2022-12-20T01:58:19;10.85;;;7.30;;
7563;SDS011;3823;53.586;10.040;2022-12-20T02:00:46;8.18;;;6.85;;
7563;SDS011;3823;53.586;10.040;2022-12-20T02:03:12;7.95;;;6.47;;
7563;SDS011;3823;53.586;10.040;2022-12-20T02:05:40;8.32;;;6.65;;
7563;SDS011;3823;53.586;10.040;2022-12-20T02:08:07;8.40;;;6.30;;
7563;SDS011;3823;53.586;10.040;2022-12-20T02:10:39;8.60;;;6.40;;
7563;SDS011;3823;53.586;10.040;2022-12-20T02:13:29;6.65;;;6.05;;
7563;SDS011;3823;53.586;10.040;2022-12-20T02:16:06;7.00;;;6.30;;
7563;SDS011;3823;53.586;10.040;2022-12-20T02:18:34;9.25;;;6.45;;
7563;SDS011;3823;53.586;10.040;2022-12-20T02:30:09;7.07;;;6.05;;
7563;SDS011;3823;53.586;10.040;2022-12-20T02:32:43;7.15;;;6.30;;
7563;SDS011;3823;53.586;10.040;2022-12-20T02:35:14;7.15;;;6.43;;
7563;SDS011;3823;53.586;10.040;2022-12-20T02:37:52;9.20;;;5.85;;
7563;SDS011;3823;53.586;10.040;2022-12-20T02:40:21;9.38;;;6.35;;
7563;SDS011;3823;53.586;10.040;2022-12-20T02:42:50;9.32;;;5.90;;
7563;SDS011;3823;53.586;10.040;2022-12-20T02:45:21;9.25;;;6.55;;
7563;SDS011;3823;53.586;10.040;2022-12-20T02:50:20;7.05;;;6.32;;
7563;SDS011;3823;53.586;10.040;2022-12-20T02:52:59;7.95;;;5.38;;
7563;SDS011;3823;53.586;10.040;2022-12-20T02:55:42;8.05;;;5.25;;
7563;SDS011;3823;53.586;10.040;2022-12-20T02:58:38;8.95;;;6.28;;
7563;SDS011;3823;53.586;10.040;2022-12-20T03:01:23;7.30;;;6.35;;
7563;SDS011;3823;53.586;10.040;2022-12-20T03:03:55;8.73;;;5.47;;
7563;SDS011;3823;53.586;10.040;2022-12-20T03:06:22;10.13;;;5.65;;
7563;SDS011;3823;53.586;10.040;2022-12-20T03:08:48;7.35;;;5.85;;
7563;SDS011;3823;53.586;10.040;2022-12-20T03:11:14;5.65;;;5.07;;
7563;SDS011;3823;53.586;10.040;2022-12-20T03:13:39;6.80;;;6.15;;
7563;SDS011;3823;53.586;10.040;2022-12-20T03:16:05;7.75;;;5.13;;
7563;SDS011;3823;53.586;10.040;2022-12-20T03:18:31;7.35;;;6.60;;
7563;SDS011;3823;53.586;10.040;2022-12-20T03:20:57;9.32;;;5.80;;
7563;SDS011;3823;53.586;10.040;2022-12-20T03:23:22;8.98;;;6.00;;
7563;SDS011;3823;53.586;10.040;2022-12-20T03:25:48;6.95;;;5.63;;
7563;SDS011;3823;53.586;10.040;2022-12-20T03:28:14;7.38;;;5.82;;
7563;SDS011;3823;53.586;10.040;2022-12-20T03:30:39;9.18;;;5.72;;
7563;SDS011;3823;53.586;10.040;2022-12-20T03:33:05;9.80;;;5.65;;
7563;SDS011;3823;53.586;10.040;2022-12-20T03:35:30;5.70;;;5.15;;
7563;SDS011;3823;53.586;10.040;2022-12-20T03:37:56;5.75;;;5.10;;
7563;SDS011;3823;53.586;10.040;2022-12-20T03:40:22;5.75;;;5.25;;
7563;SDS011;3823;53.586;10.040;2022-12-20T03:42:47;5.43;;;4.72;;
7563;SDS011;3823;53.586;10.040;2022-12-20T03:45:13;5.30;;;4.75;;
7563;SDS011;3823;53.586;10.040;2022-12-20T03:47:39;9.02;;;5.55;;
7563;SDS011;3823;53.586;10.040;2022-12-20T03:50:05;6.05;;;5.00;;
7563;SDS011;3823;53.586;10.040;2022-12-20T03:52:31;7.70;;;5.47;;
7563;SDS011;3823;53.586;10.040;2022-12-20T03:54:57;10.18;;;4.90;;
7563;SDS011;3823;53.586;10.040;2022-12-20T03:57:23;4.15;;;3.80;;
7563;SDS011;3823;53.586;10.040;2022-12-20T03:59:48;7.72;;;5.03;;
7563;SDS011;3823;53.586;10.040;2022-12-20T04:02:14;5.95;;;4.43;;
7563;SDS011;3823;53.586;10.040;2022-12-20T04:04:39;5.55;;;4.22;;
7563;SDS011;3823;53.586;10.040;2022-12-20T04:07:05;10.70;;;5.43;;
7563;SDS011;3823;53.586;10.040;2022-12-20T04:09:31;4.88;;;4.38;;
7563;SDS011;3823;53.586;10.040;2022-12-20T04:11:57;5.60;;;4.35;;
7563;SDS011;3823;53.586;10.040;2022-12-20T04:14:22;6.93;;;4.60;;
7563;SDS011;3823;53.586;10.040;2022-12-20T04:16:48;6.15;;;4.35;;
7563;SDS011;3823;53.586;10.040;2022-12-20T04:19:13;5.05;;;4.53;;
7563;SDS011;3823;53.586;10.040;2022-12-20T04:21:39;6.85;;;4.70;;
7563;SDS011;3823;53.586;10.040;2022-12-20T04:24:05;5.18;;;4.22;;
7563;SDS011;3823;53.586;10.040;2022-12-20T04:26:31;6.15;;;4.95;;
7563;SDS011;3823;53.586;10.040;2022-12-20T04:28:57;6.88;;;5.00;;
7563;SDS011;3823;53.586;10.040;2022-12-20T04:31:22;6.57;;;4.50;;
7563;SDS011;3823;53.586;10.040;2022-12-20T04:33:48;5.43;;;4.07;;
7563;SDS011;3823;53.586;10.040;2022-12-20T04:36:13;7.63;;;6.30;;
7563;SDS011;3823;53.586;10.040;2022-12-20T04:38:39;5.00;;;4.50;;
7563;SDS011;3823;53.586;10.040;2022-12-20T04:41:05;10.73;;;4.53;;
7563;SDS011;3823;53.586;10.040;2022-12-20T04:43:31;8.45;;;4.82;;
7563;SDS011;3823;53.586;10.040;2022-12-20T04:45:57;5.13;;;4.63;;
7563;SDS011;3823;53.586;10.040;2022-12-20T04:48:23;8.80;;;4.50;;
7563;SDS011;3823;53.586;10.040;2022-12-20T04:50:53;6.13;;;4.80;;
7563;SDS011;3823;53.586;10.040;2022-12-20T04:53:20;7.22;;;4.82;;
7563;SDS011;3823;53.586;10.040;2022-12-20T04:56:05;6.65;;;5.63;;
7563;SDS011;3823;53.586;10.040;2022-12-20T04:58:31;7.85;;;5.00;;
7563;SDS011;3823;53.586;10.040;2022-12-20T05:00:59;6.18;;;5.57;;
7563;SDS011;3823;53.586;10.040;2022-12-20T05:03:25;7.20;;;5.10;;
7563;SDS011;3823;53.586;10.040;2022-12-20T05:05:51;8.95;;;5.10;;
7563;SDS011;3823;53.586;10.040;2022-12-20T05:08:17;11.95;;;4.78;;
7563;SDS011;3823;53.586;10.040;2022-12-20T05:10:43;10.07;;;5.05;;
7563;SDS011;3823;53.586;10.040;2022-12-20T05:13:09;6.03;;;4.97;;
7563;SDS011;3823;53.586;10.040;2022-12-20T05:15:35;5.82;;;4.32;;
7563;SDS011;3823;53.586;10.040;2022-12-20T05:18:01;9.10;;;5.50;;
7563;SDS011;3823;53.586;10.040;2022-12-20T05:20:28;5.22;;;4.72;;
7563;SDS011;3823;53.586;10.040;2022-12-20T05:22:55;7.03;;;5.22;;
7563;SDS011;3823;53.586;10.040;2022-12-20T05:25:42;4.55;;;4.05;;
7563;SDS011;3823;53.586;10.040;2022-12-20T05:28:31;5.50;;;4.20;;
7563;SDS011;3823;53.586;10.040;2022-12-20T05:30:57;5.45;;;4.82;;
7563;SDS011;3823;53.586;10.040;2022-12-20T05:33:23;6.50;;;5.13;;
7563;SDS011;3823;53.586;10.040;2022-12-20T05:35:48;4.88;;;4.43;;
7563;SDS011;3823;53.586;10.040;2022-12-20T05:38:14;6.18;;;5.28;;
7563;SDS011;3823;53.586;10.040;2022-12-20T05:40:40;12.65;;;6.35;;
7563;SDS011;3823;53.586;10.040;2022-12-20T05:43:06;6.93;;;5.40;;
7563;SDS011;3823;53.586;10.040;2022-12-20T05:45:31;6.03;;;5.13;;
7563;SDS011;3823;53.586;10.040;2022-12-20T05:47:57;6.35;;;5.25;;
7563;SDS011;3823;53.586;10.040;2022-12-20T05:50:23;7.10;;;5.72;;
7563;SDS011;3823;53.586;10.040;2022-12-20T05:52:49;7.05;;;5.68;;
7563;SDS011;3823;53.586;10.040;2022-12-20T05:55:15;6.72;;;4.82;;
7563;SDS011;3823;53.586;10.040;2022-12-20T05:57:40;8.85;;;5.55;;
7563;SDS011;3823;53.586;10.040;2022-12-20T06:00:06;8.13;;;6.13;;
7563;SDS011;3823;53.586;10.040;2022-12-20T06:02:36;8.30;;;5.75;;
7563;SDS011;3823;53.586;10.040;2022-12-20T06:05:01;7.68;;;6.03;;
7563;SDS011;3823;53.586;10.040;2022-12-20T06:07:27;6.28;;;5.55;;
7563;SDS011;3823;53.586;10.040;2022-12-20T06:09:53;7.72;;;5.75;;
7563;SDS011;3823;53.586;10.040;2022-12-20T06:12:20;12.07;;;5.55;;
7563;SDS011;3823;53.586;10.040;2022-12-20T06:14:45;7.90;;;6.47;;
7563;SDS011;3823;53.586;10.040;2022-12-20T06:17:11;8.40;;;6.85;;
7563;SDS011;3823;53.586;10.040;2022-12-20T06:19:37;15.77;;;7.05;;
7563;SDS011;3823;53.586;10.040;2022-12-20T06:22:05;7.00;;;6.30;;
7563;SDS011;3823;53.586;10.040;2022-12-20T06:24:32;9.05;;;6.35;;
7563;SDS011;3823;53.586;10.040;2022-12-20T06:26:58;7.78;;;6.03;;
7563;SDS011;3823;53.586;10.040;2022-12-20T06:29:24;7.38;;;6.60;;
7563;SDS011;3823;53.586;10.040;2022-12-20T06:31:50;10.77;;;6.65;;
7563;SDS011;3823;53.586;10.040;2022-12-20T06:34:15;8.55;;;6.18;;
7563;SDS011;3823;53.586;10.040;2022-12-20T06:36:41;8.73;;;5.85;;
7563;SDS011;3823;53.586;10.040;2022-12-20T06:39:07;9.45;;;6.45;;
7563;SDS011;3823;53.586;10.040;2022-12-20T06:41:33;7.53;;;6.57;;
7563;SDS011;3823;53.586;10.040;2022-12-20T06:43:59;11.55;;;7.13;;
7563;SDS011;3823;53.586;10.040;2022-12-20T06:46:25;10.50;;;7.45;;
7563;SDS011;3823;53.586;10.040;2022-12-20T06:48:51;8.75;;;6.50;;
7563;SDS011;3823;53.586;10.040;2022-12-20T06:51:17;10.95;;;6.75;;
7563;SDS011;3823;53.586;10.040;2022-12-20T06:53:43;11.98;;;7.85;;
7563;SDS011;3823;53.586;10.040;2022-12-20T06:56:09;10.77;;;6.13;;
7563;SDS011;3823;53.586;10.040;2022-12-20T06:58:34;9.98;;;6.72;;
7563;SDS011;3823;53.586;10.040;2022-12-20T07:01:00;7.93;;;7.10;;
7563;SDS011;3823;53.586;10.040;2022-12-20T07:03:25;10.80;;;7.47;;
7563;SDS011;3823;53.586;10.040;2022-12-20T07:05:51;8.50;;;6.68;;
7563;SDS011;3823;53.586;10.040;2022-12-20T07:08:17;7.85;;;6.97;;
7563;SDS011;3823;53.586;10.040;2022-12-20T07:10:44;14.60;;;8.10;;
7563;SDS011;3823;53.586;10.040;2022-12-20T07:13:10;11.02;;;7.45;;
7563;SDS011;3823;53.586;10.040;2022-12-20T07:15:36;8.32;;;7.10;;
7563;SDS011;3823;53.586;10.040;2022-12-20T07:18:01;9.63;;;7.70;;
7563;SDS011;3823;53.586;10.040;2022-12-20T07:20:27;13.90;;;7.82;;
7563;SDS011;3823;53.586;10.040;2022-12-20T07:22:53;12.32;;;7.38;;
7563;SDS011;3823;53.586;10.040;2022-12-20T07:25:19;9.95;;;6.63;;
7563;SDS011;3823;53.586;10.040;2022-12-20T07:27:48;11.27;;;8.20;;
7563;SDS011;3823;53.586;10.040;2022-12-20T07:30:14;9.40;;;7.32;;
7563;SDS011;3823;53.586;10.040;2022-12-20T07:32:40;9.55;;;7.50;;
7563;SDS011;3823;53.586;10.040;2022-12-20T07:35:06;10.32;;;8.27;;
7563;SDS011;3823;53.586;10.040;2022-12-20T07:37:34;9.45;;;7.03;;
7563;SDS011;3823;53.586;10.040;2022-12-20T07:40:00;7.93;;;7.13;;
7563;SDS011;3823;53.586;10.040;2022-12-20T07:42:25;10.52;;;8.00;;
7563;SDS011;3823;53.586;10.040;2022-12-20T07:44:51;9.40;;;7.30;;
7563;SDS011;3823;53.586;10.040;2022-12-20T07:47:17;10.77;;;8.50;;
7563;SDS011;3823;53.586;10.040;2022-12-20T07:49:42;13.80;;;8.68;;
7563;SDS011;3823;53.586;10.040;2022-12-20T07:52:08;8.52;;;7.05;;
7563;SDS011;3823;53.586;10.040;2022-12-20T07:54:37;12.05;;;8.05;;
7563;SDS011;3823;53.586;10.040;2022-12-20T07:57:18;11.50;;;9.13;;
7563;SDS011;3823;53.586;10.040;2022-12-20T07:59:50;10.00;;;7.60;;
7563;SDS011;3823;53.586;10.040;2022-12-20T08:02:22;9.20;;;8.25;;
7563;SDS011;3823;53.586;10.040;2022-12-20T08:04:52;13.55;;;8.25;;
7563;SDS011;3823;53.586;10.040;2022-12-20T08:07:19;11.48;;;8.07;;
7563;SDS011;3823;53.586;10.040;2022-12-20T08:09:45;13.82;;;7.85;;
7563;SDS011;3823;53.586;10.040;2022-12-20T08:12:11;13.30;;;8.93;;
7563;SDS011;3823;53.586;10.040;2022-12-20T08:14:40;15.95;;;10.77;;
7563;SDS011;3823;53.586;10.040;2022-12-20T08:17:05;12.32;;;8.90;;
7563;SDS011;3823;53.586;10.040;2022-12-20T08:19:31;15.65;;;9.43;;
7563;SDS011;3823;53.586;10.040;2022-12-20T08:21:57;13.45;;;8.73;;
7563;SDS011;3823;53.586;10.040;2022-12-20T08:24:23;15.25;;;9.35;;
7563;SDS011;3823;53.586;10.040;2022-12-20T08:26:49;11.30;;;8.25;;
7563;SDS011;3823;53.586;10.040;2022-12-20T08:29:14;11.50;;;8.60;;
7563;SDS011;3823;53.586;10.040;2022-12-20T08:31:40;14.00;;;8.90;;
7563;SDS011;3823;53.586;10.040;2022-12-20T08:34:06;11.95;;;8.15;;
7563;SDS011;3823;53.586;10.040;2022-12-20T08:36:37;12.60;;;9.05;;
7563;SDS011;3823;53.586;10.040;2022-12-20T08:39:03;15.57;;;9.30;;
7563;SDS011;3823;53.586;10.040;2022-12-20T08:41:30;11.65;;;8.90;;
7563;SDS011;3823;53.586;10.040;2022-12-20T08:43:57;17.02;;;8.98;;
7563;SDS011;3823;53.586;10.040;2022-12-20T08:46:23;11.27;;;9.02;;
7563;SDS011;3823;53.586;10.040;2022-12-20T08:48:48;11.10;;;8.38;;
7563;SDS011;3823;53.586;10.040;2022-12-20T08:51:14;15.07;;;9.15;;
7563;SDS011;3823;53.586;10.040;2022-12-20T08:53:39;14.63;;;10.20;;
7563;SDS011;3823;53.586;10.040;2022-12-20T08:56:15;10.70;;;8.38;;
7563;SDS011;3823;53.586;10.040;2022-12-20T08:58:42;14.00;;;8.85;;
7563;SDS011;3823;53.586;10.040;2022-12-20T09:01:09;9.48;;;7.75;;
7563;SDS011;3823;53.586;10.040;2022-12-20T09:03:37;13.27;;;8.00;;
7563;SDS011;3823;53.586;10.040;2022-12-20T09:06:07;13.75;;;8.40;;
7563;SDS011;3823;53.586;10.040;2022-12-20T09:08:51;14.32;;;7.90;;
7563;SDS011;3823;53.586;10.040;2022-12-20T09:11:18;8.52;;;6.93;;
7563;SDS011;3823;53.586;10.040;2022-12-20T09:13:46;13.43;;;7.82;;
7563;SDS011;3823;53.586;10.040;2022-12-20T09:16:15;12.55;;;6.65;;
7563;SDS011;3823;53.586;10.040;2022-12-20T09:18:43;14.48;;;7.13;;
7563;SDS011;3823;53.586;10.040;2022-12-20T09:21:11;10.68;;;7.72;;
7563;SDS011;3823;53.586;10.040;2022-12-20T09:23:37;8.45;;;6.78;;
7563;SDS011;3823;53.586;10.040;2022-12-20T09:26:03;10.00;;;7.35;;
7563;SDS011;3823;53.586;10.040;2022-12-20T09:28:34;13.45;;;7.82;;
7563;SDS011;3823;53.586;10.040;2022-12-20T09:31:00;8.27;;;6.93;;
7563;SDS011;3823;53.586;10.040;2022-12-20T09:33:28;10.90;;;7.97;;
7563;SDS011;3823;53.586;10.040;2022-12-20T09:35:55;10.77;;;7.15;;
7563;SDS011;3823;53.586;10.040;2022-12-20T09:38:21;8.80;;;7.90;;
7563;SDS011;3823;53.586;10.040;2022-12-20T09:40:47;13.23;;;8.23;;
7563;SDS011;3823;53.586;10.040;2022-12-20T09:43:15;9.48;;;7.50;;
7563;SDS011;3823;53.586;10.040;2022-12-20T09:45:41;15.45;;;8.82;;
7563;SDS011;3823;53.586;10.040;2022-12-20T09:48:12;10.35;;;7.32;;
7563;SDS011;3823;53.586;10.040;2022-12-20T09:50:45;10.02;;;7.93;;
7563;SDS011;3823;53.586;10.040;2022-12-20T09:56:12;13.00;;;7.57;;
7563;SDS011;3823;53.586;10.040;2022-12-20T10:01:21;10.73;;;7.30;;
7563;SDS011;3823;53.586;10.040;2022-12-20T10:03:51;11.32;;;7.47;;
7563;SDS011;3823;53.586;10.040;2022-12-20T10:09:26;8.07;;;7.20;;
7563;SDS011;3823;53.586;10.040;2022-12-20T10:15:03;10.07;;;6.85;;
7563;SDS011;3823;53.586;10.040;2022-12-20T10:22:59;8.23;;;6.97;;
7563;SDS011;3823;53.586;10.040;2022-12-20T10:25:41;11.35;;;6.57;;
7563;SDS011;3823;53.586;10.040;2022-12-20T10:28:15;9.70;;;6.75;;
7563;SDS011;3823;53.586;10.040;2022-12-20T10:30:44;10.30;;;7.47;;
7563;SDS011;3823;53.586;10.040;2022-12-20T10:33:18;9.13;;;7.60;;
7563;SDS011;3823;53.586;10.040;2022-12-20T10:38:53;7.95;;;7.15;;
7563;SDS011;3823;53.586;10.040;2022-12-20T10:41:22;11.63;;;7.70;;
7563;SDS011;3823;53.586;10.040;2022-12-20T10:43:51;8.65;;;7.00;;
7563;SDS011;3823;53.586;10.040;2022-12-20T10:49:23;12.35;;;8.48;;
7563;SDS011;3823;53.586;10.040;2022-12-20T10:51:52;8.80;;;6.93;;
7563;SDS011;3823;53.586;10.040;2022-12-20T10:54:36;9.50;;;7.68;;
7563;SDS011;3823;53.586;10.040;2022-12-20T10:59:45;10.80;;;8.68;;
7563;SDS011;3823;53.586;10.040;2022-12-20T11:02:46;10.57;;;8.40;;
7563;SDS011;3823;53.586;10.040;2022-12-20T11:07:34;10.07;;;6.82;;
7563;SDS011;3823;53.586;10.040;2022-12-20T11:10:02;12.32;;;7.82;;
7563;SDS011;3823;53.586;10.040;2022-12-20T11:12:51;10.20;;;7.93;;
7563;SDS011;3823;53.586;10.040;2022-12-20T11:15:23;9.80;;;6.95;;
7563;SDS011;3823;53.586;10.040;2022-12-20T11:18:12;9.13;;;6.95;;
7563;SDS011;3823;53.586;10.040;2022-12-20T11:23:27;9.68;;;7.45;;
7563;SDS011;3823;53.586;10.040;2022-12-20T11:26:10;8.38;;;7.00;;
7563;SDS011;3823;53.586;10.040;2022-12-20T11:37:26;9.70;;;7.03;;
7563;SDS011;3823;53.586;10.040;2022-12-20T11:46:02;14.25;;;7.25;;
7563;SDS011;3823;53.586;10.040;2022-12-20T11:48:58;13.65;;;5.78;;
7563;SDS011;3823;53.586;10.040;2022-12-20T11:51:42;10.45;;;6.03;;
7563;SDS011;3823;53.586;10.040;2022-12-20T11:54:16;7.22;;;6.03;;
7563;SDS011;3823;53.586;10.040;2022-12-20T11:56:51;7.72;;;5.45;;
7563;SDS011;3823;53.586;10.040;2022-12-20T11:59:57;6.40;;;5.78;;
7563;SDS011;3823;53.586;10.040;2022-12-20T12:02:27;10.50;;;5.43;;
7563;SDS011;3823;53.586;10.040;2022-12-20T12:05:05;5.85;;;4.93;;
7563;SDS011;3823;53.586;10.040;2022-12-20T12:07:42;7.50;;;4.85;;
7563;SDS011;3823;53.586;10.040;2022-12-20T12:10:16;7.80;;;5.03;;
7563;SDS011;3823;53.586;10.040;2022-12-20T12:12:49;6.68;;;5.50;;
7563;SDS011;3823;53.586;10.040;2022-12-20T12:18:02;8.73;;;5.55;;
7563;SDS011;3823;53.586;10.040;2022-12-20T12:25:43;7.40;;;4.70;;
7563;SDS011;3823;53.586;10.040;2022-12-20T12:28:09;7.65;;;4.53;;
7563;SDS011;3823;53.586;10.040;2022-12-20T12:30:38;5.50;;;4.53;;
7563;SDS011;3823;53.586;10.040;2022-12-20T12:33:14;4.80;;;4.32;;
7563;SDS011;3823;53.586;10.040;2022-12-20T12:35:50;6.22;;;4.78;;
7563;SDS011;3823;53.586;10.040;2022-12-20T12:38:34;6.20;;;4.28;;
7563;SDS011;3823;53.586;10.040;2022-12-20T12:46:42;5.50;;;4.32;;
7563;SDS011;3823;53.586;10.040;2022-12-20T12:49:17;4.78;;;4.28;;
7563;SDS011;3823;53.586;10.040;2022-12-20T12:51:49;8.80;;;4.53;;
7563;SDS011;3823;53.586;10.040;2022-12-20T12:54:18;7.43;;;4.55;;
7563;SDS011;3823;53.586;10.040;2022-12-20T12:56:52;8.70;;;5.13;;
7563;SDS011;3823;53.586;10.040;2022-12-20T12:59:39;11.77;;;5.15;;
7563;SDS011;3823;53.586;10.040;2022-12-20T13:07:44;7.20;;;5.60;;
7563;SDS011;3823;53.586;10.040;2022-12-20T13:17:51;9.02;;;5.60;;
7563;SDS011;3823;53.586;10.040;2022-12-20T13:20:24;10.18;;;6.07;;
7563;SDS011;3823;53.586;10.040;2022-12-20T13:25:36;6.05;;;4.85;;
7563;SDS011;3823;53.586;10.040;2022-12-20T13:38:36;10.68;;;7.35;;
7563;SDS011;3823;53.586;10.040;2022-12-20T13:46:49;7.15;;;6.40;;
7563;SDS011;3823;53.586;10.040;2022-12-20T13:49:24;10.23;;;7.28;;
7563;SDS011;3823;53.586;10.040;2022-12-20T13:52:05;10.60;;;6.35;;
7563;SDS011;3823;53.586;10.040;2022-12-20T13:54:35;8.13;;;6.68;;
7563;SDS011;3823;53.586;10.040;2022-12-20T13:57:58;8.07;;;6.82;;
7563;SDS011;3823;53.586;10.040;2022-12-20T14:00:24;9.40;;;6.60;;
7563;SDS011;3823;53.586;10.040;2022-12-20T14:02:50;9.32;;;7.18;;
7563;SDS011;3823;53.586;10.040;2022-12-20T14:05:24;6.90;;;5.93;;
7563;SDS011;3823;53.586;10.040;2022-12-20T14:10:26;10.27;;;6.45;;
7563;SDS011;3823;53.586;10.040;2022-12-20T14:12:53;8.32;;;6.90;;
7563;SDS011;3823;53.586;10.040;2022-12-20T14:17:49;8.32;;;6.95;;
7563;SDS011;3823;53.586;10.040;2022-12-20T14:20:15;13.10;;;6.47;;
7563;SDS011;3823;53.586;10.040;2022-12-20T14:22:57;9.80;;;6.60;;
7563;SDS011;3823;53.586;10.040;2022-12-20T14:31:02;8.40;;;5.90;;
7563;SDS011;3823;53.586;10.040;2022-12-20T14:36:06;8.43;;;6.15;;
7563;SDS011;3823;53.586;10.040;2022-12-20T14:38:44;11.55;;;6.25;;
7563;SDS011;3823;53.586;10.040;2022-12-20T14:44:01;6.97;;;6.28;;
7563;SDS011;3823;53.586;10.040;2022-12-20T14:46:30;11.18;;;8.07;;
7563;SDS011;3823;53.586;10.040;2022-12-20T14:57:21;13.77;;;7.15;;
7563;SDS011;3823;53.586;10.040;2022-12-20T14:59:56;9.98;;;7.38;;
7563;SDS011;3823;53.586;10.040;2022-12-20T15:02:45;8.90;;;6.45;;
7563;SDS011;3823;53.586;10.040;2022-12-20T15:11:00;12.07;;;7.68;;
7563;SDS011;3823;53.586;10.040;2022-12-20T15:16:00;8.18;;;7.35;;
7563;SDS011;3823;53.586;10.040;2022-12-20T15:18:46;11.50;;;8.05;;
7563;SDS011;3823;53.586;10.040;2022-12-20T15:21:17;13.88;;;8.80;;
7563;SDS011;3823;53.586;10.040;2022-12-20T15:23:51;11.75;;;7.35;;
7563;SDS011;3823;53.586;10.040;2022-12-20T15:26:19;8.90;;;6.55;;
7563;SDS011;3823;53.586;10.040;2022-12-20T15:28:46;9.30;;;8.20;;
7563;SDS011;3823;53.586;10.040;2022-12-20T15:31:13;11.10;;;7.75;;
7563;SDS011;3823;53.586;10.040;2022-12-20T15:33:40;9.05;;;7.30;;
7563;SDS011;3823;53.586;10.040;2022-12-20T15:36:12;8.60;;;7.75;;
7563;SDS011;3823;53.586;10.040;2022-12-20T15:38:44;13.40;;;7.95;;
7563;SDS011;3823;53.586;10.040;2022-12-20T15:41:15;9.55;;;7.35;;
7563;SDS011;3823;53.586;10.040;2022-12-20T15:43:46;14.23;;;6.80;;
7563;SDS011;3823;53.586;10.040;2022-12-20T15:46:34;8.85;;;7.47;;
7563;SDS011;3823;53.586;10.040;2022-12-20T15:49:00;9.35;;;7.25;;
7563;SDS011;3823;53.586;10.040;2022-12-20T15:51:26;14.13;;;7.20;;
7563;SDS011;3823;53.586;10.040;2022-12-20T15:53:55;8.70;;;7.68;;
7563;SDS011;3823;53.586;10.040;2022-12-20T15:56:21;7.07;;;6.25;;
7563;SDS011;3823;53.586;10.040;2022-12-20T15:58:48;8.60;;;6.57;;
7563;SDS011;3823;53.586;10.040;2022-12-20T16:01:15;7.03;;;6.30;;
7563;SDS011;3823;53.586;10.040;2022-12-20T16:03:45;8.27;;;7.00;;
7563;SDS011;3823;53.586;10.040;2022-12-20T16:06:11;8.70;;;7.18;;
7563;SDS011;3823;53.586;10.040;2022-12-20T16:08:37;10.20;;;6.60;;
7563;SDS011;3823;53.586;10.040;2022-12-20T16:11:04;8.48;;;6.97;;
7563;SDS011;3823;53.586;10.040;2022-12-20T16:13:31;9.07;;;6.57;;
7563;SDS011;3823;53.586;10.040;2022-12-20T16:15:56;10.00;;;6.85;;
7563;SDS011;3823;53.586;10.040;2022-12-20T16:18:24;6.15;;;5.55;;
7563;SDS011;3823;53.586;10.040;2022-12-20T16:20:50;7.03;;;6.22;;
7563;SDS011;3823;53.586;10.040;2022-12-20T16:23:17;7.05;;;6.18;;
7563;SDS011;3823;53.586;10.040;2022-12-20T16:25:46;8.05;;;7.00;;
7563;SDS011;3823;53.586;10.040;2022-12-20T16:28:12;8.65;;;6.72;;
7563;SDS011;3823;53.586;10.040;2022-12-20T16:30:38;8.10;;;6.80;;
7563;SDS011;3823;53.586;10.040;2022-12-20T16:33:04;6.50;;;5.90;;
7563;SDS011;3823;53.586;10.040;2022-12-20T16:35:31;8.98;;;7.63;;
7563;SDS011;3823;53.586;10.040;2022-12-20T16:38:00;8.90;;;7.28;;
7563;SDS011;3823;53.586;10.040;2022-12-20T16:40:27;9.68;;;7.03;;
7563;SDS011;3823;53.586;10.040;2022-12-20T16:42:55;9.23;;;6.97;;
7563;SDS011;3823;53.586;10.040;2022-12-20T16:45:23;8.60;;;7.70;;
7563;SDS011;3823;53.586;10.040;2022-12-20T16:47:50;18.73;;;7.90;;
7563;SDS011;3823;53.586;10.040;2022-12-20T16:50:17;9.25;;;7.60;;
7563;SDS011;3823;53.586;10.040;2022-12-20T16:52:44;10.38;;;9.13;;
7563;SDS011;3823;53.586;10.040;2022-12-20T16:55:14;18.17;;;8.05;;
7563;SDS011;3823;53.586;10.040;2022-12-20T16:57:45;12.88;;;8.07;;
7563;SDS011;3823;53.586;10.040;2022-12-20T17:00:14;9.63;;;7.70;;
7563;SDS011;3823;53.586;10.040;2022-12-20T17:02:42;10.10;;;7.95;;
7563;SDS011;3823;53.586;10.040;2022-12-20T17:05:15;9.55;;;7.93;;
7563;SDS011;3823;53.586;10.040;2022-12-20T17:07:44;11.85;;;8.07;;
7563;SDS011;3823;53.586;10.040;2022-12-20T17:10:10;8.55;;;7.65;;
7563;SDS011;3823;53.586;10.040;2022-12-20T17:12:35;13.48;;;9.35;;
7563;SDS011;3823;53.586;10.040;2022-12-20T17:15:01;12.85;;;9.05;;
7563;SDS011;3823;53.586;10.040;2022-12-20T17:17:28;12.65;;;8.93;;
7563;SDS011;3823;53.586;10.040;2022-12-20T17:19:54;11.20;;;8.63;;
7563;SDS011;3823;53.586;10.040;2022-12-20T17:22:19;14.98;;;9.05;;
7563;SDS011;3823;53.586;10.040;2022-12-20T17:24:45;11.85;;;7.50;;
7563;SDS011;3823;53.586;10.040;2022-12-20T17:27:10;24.30;;;9.77;;
7563;SDS011;3823;53.586;10.040;2022-12-20T17:29:36;12.27;;;9.10;;
7563;SDS011;3823;53.586;10.040;2022-12-20T17:32:01;12.95;;;8.40;;
7563;SDS011;3823;53.586;10.040;2022-12-20T17:34:34;10.25;;;8.52;;
7563;SDS011;3823;53.586;10.040;2022-12-20T17:37:00;10.10;;;8.43;;
7563;SDS011;3823;53.586;10.040;2022-12-20T17:39:25;16.77;;;9.10;;
7563;SDS011;3823;53.586;10.040;2022-12-20T17:41:51;8.20;;;7.40;;
7563;SDS011;3823;53.586;10.040;2022-12-20T17:44:20;15.52;;;8.35;;